Time;durP1;ratioP1;P1;durP2;ratioP2;P2;SDS_P1;SDS_P2;PMS_P1;PMS_P2;Temp;Humidity;BMP_temperature;BMP_pressure;BME280_temperature;BME280_humidity;BME280_pressure;Samples;Min_cycle;Max_cycle;Signal;HPM_P1;HPM_P2
2023/05/12 00:00:27;;;;;;;;;;;;;;;10.23;67.36;100318.53;4979301;28;19969;-74
2023/05/12 00:02:53;;;;;;;;;;;;;;;10.26;66.82;100312.53;4962557;28;19925;-74
2023/05/12 00:05:19;;;;;;;;;;;;;;;10.30;66.87;100315.56;4965775;28;19933;-74
2023/05/12 00:07:45;;;;;;;;;;;;;;;10.30;66.88;100316.41;4962347;28;19948;-74
2023/05/12 00:10:13;;;;;;;;;;;;;;;10.35;66.41;100313.72;4961523;28;20421;-74
2023/05/12 00:12:39;;;;;;;;;;;;;;;10.37;66.29;100318.91;4962720;28;20246;-73
2023/05/12 00:15:06;;;;;;;;;;;;;;;10.38;66.08;100317.84;4967430;28;20405;-73
2023/05/12 00:17:31;;;;;;;;;;;;;;;10.31;65.75;100311.75;4971183;28;19972;-74
2023/05/12 00:19:57;;;;;;;;;;;;;;;10.40;65.56;100317.56;4963485;28;19930;-73
2023/05/12 00:22:25;;;;;;;;;;;;;;;10.38;65.54;100312.38;4966785;28;19961;-74
2023/05/12 00:24:51;;;;;;;;;;;;;;;10.39;65.44;100313.19;4965766;28;19930;-74
2023/05/12 00:27:18;;;;;;;;;;;;;;;10.42;65.48;100313.53;4967292;28;20032;-74
2023/05/12 00:29:44;;;;;;;;;;;;;;;10.44;64.97;100308.63;4962749;28;19932;-74
2023/05/12 00:32:10;;;;;;;;;;;;;;;10.45;65.16;100312.16;4965251;28;19926;-74
2023/05/12 00:34:36;;;;;;;;;;;;;;;10.45;64.73;100310.25;4966173;28;19982;-72
2023/05/12 00:37:02;;;;;;;;;;;;;;;10.47;64.37;100310.00;4965188;28;19926;-73
2023/05/12 00:39:28;;;;;;;;;;;;;;;10.44;64.24;100297.69;4979806;28;20527;-74
2023/05/12 00:41:55;;;;;;;;;;;;;;;10.35;64.30;100302.78;4981589;28;20325;-74
2023/05/12 00:44:22;;;;;;;;;;;;;;;10.30;64.25;100307.38;4964946;28;19976;-74
2023/05/12 00:46:48;;;;;;;;;;;;;;;10.25;64.36;100305.41;4961886;28;20381;-74
2023/05/12 00:49:14;;;;;;;;;;;;;;;10.24;64.11;100306.50;4966709;28;19957;-74
2023/05/12 00:51:41;;;;;;;;;;;;;;;10.22;64.06;100305.94;4963104;28;20294;-74
2023/05/12 00:54:07;;;;;;;;;;;;;;;10.16;64.17;100305.06;4965657;28;19925;-74
2023/05/12 00:56:38;;;;;;;;;;;;;;;10.19;64.14;100306.47;4966047;28;20314;-74
2023/05/12 00:59:04;;;;;;;;;;;;;;;10.19;63.83;100304.53;4965429;28;20304;-74
2023/05/12 01:01:33;;;;;;;;;;;;;;;10.21;63.70;100307.03;4966417;28;20024;-75
2023/05/12 01:03:59;;;;;;;;;;;;;;;10.18;63.46;100304.81;4966123;28;20362;-73
2023/05/12 01:06:28;;;;;;;;;;;;;;;10.06;63.73;100305.81;4970873;28;20297;-73
2023/05/12 01:08:56;;;;;;;;;;;;;;;9.95;64.01;100305.97;4971446;28;19934;-73
2023/05/12 01:11:22;;;;;;;;;;;;;;;9.88;64.23;100309.72;4966518;28;20308;-74
2023/05/12 01:13:48;;;;;;;;;;;;;;;9.83;64.37;100309.69;4965834;28;20309;-73
2023/05/12 01:16:14;;;;;;;;;;;;;;;9.78;64.45;100306.91;4968387;28;19933;-73
2023/05/12 01:18:48;;;;;;;;;;;;;;;9.73;64.51;100306.81;4963347;28;20425;-74
2023/05/12 01:21:14;;;;;;;;;;;;;;;9.76;64.58;100312.59;4968179;28;20199;-73
2023/05/12 01:23:43;;;;;;;;;;;;;;;9.80;64.50;100310.19;4983421;28;19961;-73
2023/05/12 01:26:11;;;;;;;;;;;;;;;9.79;64.35;100306.63;4965272;28;20008;-73
2023/05/12 01:28:39;;;;;;;;;;;;;;;9.79;64.36;100303.91;4979542;28;20316;-74
2023/05/12 01:31:07;;;;;;;;;;;;;;;9.78;64.38;100312.38;4965198;28;19925;-74
2023/05/12 01:33:34;;;;;;;;;;;;;;;9.77;64.23;100311.53;4970310;28;19940;-74
2023/05/12 01:36:00;;;;;;;;;;;;;;;9.77;64.57;100308.78;4987071;28;20397;-73
2023/05/12 01:38:26;;;;;;;;;;;;;;;9.78;64.84;100306.91;4965166;28;20420;-73
2023/05/12 01:40:53;;;;;;;;;;;;;;;9.81;64.87;100313.75;4985044;28;20112;-74
2023/05/12 01:43:21;;;;;;;;;;;;;;;9.82;64.67;100302.56;4967188;28;19930;-74
2023/05/12 01:45:47;;;;;;;;;;;;;;;9.86;64.44;100313.81;4966907;28;19926;-74
2023/05/12 01:48:12;;;;;;;;;;;;;;;9.86;64.34;100305.63;4983229;28;19948;-73
2023/05/12 01:50:38;;;;;;;;;;;;;;;9.86;64.29;100300.97;4966056;28;19926;-74
2023/05/12 01:53:09;;;;;;;;;;;;;;;9.88;64.10;100309.72;4963759;28;20298;-73
2023/05/12 01:55:36;;;;;;;;;;;;;;;9.89;64.21;100299.63;4966009;28;20460;-75
2023/05/12 01:58:02;;;;;;;;;;;;;;;9.93;63.87;100308.94;4964154;28;20309;-73
2023/05/12 02:00:31;;;;;;;;;;;;;;;9.91;64.08;100302.94;4965251;28;20397;-74
2023/05/12 02:02:58;;;;;;;;;;;;;;;9.87;64.00;100299.88;4960116;28;19958;-74
2023/05/12 02:05:24;;;;;;;;;;;;;;;9.86;64.30;100308.34;4971940;28;19926;-74
2023/05/12 02:07:51;;;;;;;;;;;;;;;9.84;64.45;100303.13;4964951;28;20000;-74
2023/05/12 02:10:17;;;;;;;;;;;;;;;9.83;64.66;100303.38;4979801;28;20357;-74
2023/05/12 02:12:43;;;;;;;;;;;;;;;9.84;64.66;100305.06;4958930;28;19926;-75
2023/05/12 02:15:10;;;;;;;;;;;;;;;9.78;64.19;100298.72;4978703;28;20016;-74
2023/05/12 02:17:41;;;;;;;;;;;;;;;9.87;64.55;100310.00;4946943;28;19957;-75
2023/05/12 02:20:10;;;;;;;;;;;;;;;9.88;64.52;100308.91;4944383;28;20021;-74
2023/05/12 02:22:36;;;;;;;;;;;;;;;9.91;64.47;100308.38;4949377;28;20022;-75
2023/05/12 02:25:03;;;;;;;;;;;;;;;9.94;64.13;100313.34;4963882;28;20348;-75
2023/05/12 02:27:31;;;;;;;;;;;;;;;9.97;63.89;100312.81;4966899;28;19933;-75
2023/05/12 02:29:57;;;;;;;;;;;;;;;9.99;63.68;100310.66;4964282;28;19930;-74
2023/05/12 02:32:26;;;;;;;;;;;;;;;10.03;63.45;100306.31;4964530;28;19926;-74
2023/05/12 02:34:54;;;;;;;;;;;;;;;10.07;63.20;100307.44;4961361;28;19933;-74
2023/05/12 02:37:20;;;;;;;;;;;;;;;10.12;63.05;100308.56;4983899;28;19988;-73
2023/05/12 02:39:46;;;;;;;;;;;;;;;10.15;63.06;100306.16;4984083;28;19926;-73
2023/05/12 02:42:12;;;;;;;;;;;;;;;10.19;63.06;100309.19;4972445;28;20313;-74
2023/05/12 02:44:38;;;;;;;;;;;;;;;10.21;63.08;100312.50;4946331;28;19926;-73
2023/05/12 02:47:04;;;;;;;;;;;;;;;10.24;62.91;100305.69;4964273;28;20020;-73
2023/05/12 02:49:31;;;;;;;;;;;;;;;10.27;62.54;100313.38;4962160;28;20377;-74
2023/05/12 02:51:59;;;;;;;;;;;;;;;10.32;62.48;100316.97;4966764;28;19948;-74
2023/05/12 02:54:24;;;;;;;;;;;;;;;10.39;62.39;100310.44;4964035;28;19929;-74
2023/05/12 02:56:50;;;;;;;;;;;;;;;10.43;62.26;100306.97;4963469;28;20463;-74
2023/05/12 02:59:16;;;;;;;;;;;;;;;10.48;61.92;100311.66;4962857;28;19930;-74
2023/05/12 03:01:42;;;;;;;;;;;;;;;10.53;61.56;100317.16;4979084;28;19926;-74
2023/05/12 03:04:08;;;;;;;;;;;;;;;10.59;61.37;100307.09;4963069;28;19926;-74
2023/05/12 03:06:34;;;;;;;;;;;;;;;10.67;61.06;100313.97;4960996;28;19932;-74
2023/05/12 03:09:02;;;;;;;;;;;;;;;10.75;60.89;100316.22;4976797;28;20021;-74
2023/05/12 03:11:27;;;;;;;;;;;;;;;10.83;60.65;100310.25;4962910;28;19926;-74
2023/05/12 03:13:53;;;;;;;;;;;;;;;10.94;60.45;100310.31;4964393;28;20389;-74
2023/05/12 03:16:19;;;;;;;;;;;;;;;11.07;60.07;100307.94;4963061;28;20145;-75
2023/05/12 03:18:45;;;;;;;;;;;;;;;11.20;59.64;100312.09;4963298;28;20021;-74
2023/05/12 03:21:11;;;;;;;;;;;;;;;11.37;59.16;100304.78;4948097;28;20405;-75
2023/05/12 03:23:37;;;;;;;;;;;;;;;11.53;58.80;100302.91;4981600;28;19933;-75
2023/05/12 03:26:08;;;;;;;;;;;;;;;11.70;58.22;100311.72;4946380;28;19930;-75
2023/05/12 03:28:34;;;;;;;;;;;;;;;11.85;57.72;100302.72;4979054;28;19926;-74
2023/05/12 03:31:00;;;;;;;;;;;;;;;11.98;57.08;100304.09;4964083;28;20475;-75
2023/05/12 03:33:26;;;;;;;;;;;;;;;12.14;56.58;100301.41;4959604;28;19926;-75
2023/05/12 03:35:52;;;;;;;;;;;;;;;12.28;56.07;100304.44;4962166;28;19926;-75
2023/05/12 03:38:18;;;;;;;;;;;;;;;12.43;55.65;100300.88;4961946;28;19981;-75
2023/05/12 03:40:51;;;;;;;;;;;;;;;12.60;54.96;100301.41;4960419;28;20388;-74
2023/05/12 03:43:20;;;;;;;;;;;;;;;12.77;54.36;100303.03;4962678;28;20020;-74
2023/05/12 03:45:46;;;;;;;;;;;;;;;12.84;54.07;100309.06;4964772;28;19933;-74
2023/05/12 03:48:12;;;;;;;;;;;;;;;12.86;53.73;100301.38;4967348;28;19926;-74
2023/05/12 03:50:39;;;;;;;;;;;;;;;12.93;53.28;100312.06;4969365;28;20020;-74
2023/05/12 03:53:05;;;;;;;;;;;;;;;12.97;52.82;100301.34;4967108;28;20875;-75
2023/05/12 03:55:33;;;;;;;;;;;;;;;13.05;52.77;100304.34;4965587;28;20343;-75
2023/05/12 03:57:59;;;;;;;;;;;;;;;13.23;52.36;100306.75;4969972;28;19977;-75
2023/05/12 04:00:26;;;;;;;;;;;;;;;13.41;51.91;100303.38;4947044;28;20400;-75
2023/05/12 04:02:52;;;;;;;;;;;;;;;13.53;51.30;100305.84;4967596;28;20377;-75
2023/05/12 04:05:18;;;;;;;;;;;;;;;13.80;50.61;100306.50;4968548;28;19926;-75
2023/05/12 04:07:44;;;;;;;;;;;;;;;13.96;49.75;100302.56;4946609;28;19949;-75
2023/05/12 04:10:10;;;;;;;;;;;;;;;13.99;49.45;100303.91;4965638;28;19930;-75
2023/05/12 04:12:36;;;;;;;;;;;;;;;13.99;48.90;100298.41;4981792;28;20033;-75
2023/05/12 04:15:01;;;;;;;;;;;;;;;14.02;48.79;100298.66;4964514;28;20020;-75
2023/05/12 04:17:30;;;;;;;;;;;;;;;14.08;48.75;100299.44;4965563;28;20009;-75
2023/05/12 04:19:56;;;;;;;;;;;;;;;14.17;48.65;100299.66;4964884;28;20670;-75
2023/05/12 04:22:23;;;;;;;;;;;;;;;14.23;48.00;100304.03;4965426;28;20381;-75
2023/05/12 04:24:50;;;;;;;;;;;;;;;14.33;47.89;100301.16;4965849;28;19940;-75
2023/05/12 04:27:16;;;;;;;;;;;;;;;14.43;47.57;100299.44;4965277;28;19925;-75
2023/05/12 04:29:43;;;;;;;;;;;;;;;14.48;47.23;100296.63;4966223;28;19926;-75
2023/05/12 04:32:10;;;;;;;;;;;;;;;14.56;46.88;100290.53;4963304;28;20396;-75
2023/05/12 04:34:38;;;;;;;;;;;;;;;14.61;46.44;100297.91;4953227;28;19926;-75
2023/05/12 04:37:04;;;;;;;;;;;;;;;14.66;46.56;100303.38;4955085;28;20021;-75
2023/05/12 04:39:30;;;;;;;;;;;;;;;14.66;46.73;100299.78;4965776;28;19930;-74
2023/05/12 04:41:58;;;;;;;;;;;;;;;14.63;46.85;100294.84;4981407;28;19926;-74
2023/05/12 04:44:25;;;;;;;;;;;;;;;14.52;47.21;100297.72;4618880;28;9999980;-74
2023/05/12 04:46:54;;;;;;;;;;;;;;;14.45;47.21;100294.47;4959430;28;19926;-74
2023/05/12 04:49:20;;;;;;;;;;;;;;;14.46;47.09;100298.88;4962274;28;19980;-75
2023/05/12 04:51:48;;;;;;;;;;;;;;;14.45;47.00;100298.06;4930544;28;19933;-74
2023/05/12 04:54:14;;;;;;;;;;;;;;;14.56;46.79;100297.94;4975889;28;19984;-74
2023/05/12 04:56:40;;;;;;;;;;;;;;;14.59;46.43;100298.19;4958345;28;19999;-74
2023/05/12 04:59:07;;;;;;;;;;;;;;;14.55;46.25;100294.38;4955880;28;20375;-74
2023/05/12 05:01:32;;;;;;;;;;;;;;;14.47;46.44;100292.25;4965896;28;19926;-74
2023/05/12 05:03:58;;;;;;;;;;;;;;;14.42;46.71;100300.56;4965580;28;20316;-75
2023/05/12 05:06:24;;;;;;;;;;;;;;;14.54;46.27;100303.75;4965648;28;19933;-74
2023/05/12 05:08:52;;;;;;;;;;;;;;;14.54;46.41;100305.66;4932146;28;20014;-74
2023/05/12 05:11:18;;;;;;;;;;;;;;;14.54;46.41;100312.00;4961202;28;19926;-74
2023/05/12 05:13:44;;;;;;;;;;;;;;;14.58;46.50;100304.81;4964147;28;19926;-74
2023/05/12 05:16:10;;;;;;;;;;;;;;;14.63;46.19;100300.38;4962551;28;19933;-74
2023/05/12 05:18:40;;;;;;;;;;;;;;;14.66;46.13;100311.63;4965404;28;19926;-74
2023/05/12 05:21:06;;;;;;;;;;;;;;;14.57;46.09;100305.09;4967898;28;19969;-74
2023/05/12 05:23:32;;;;;;;;;;;;;;;14.54;46.19;100300.16;4966278;28;20400;-74
2023/05/12 05:25:59;;;;;;;;;;;;;;;14.53;46.19;100293.03;4964415;28;19933;-74
2023/05/12 05:28:26;;;;;;;;;;;;;;;14.46;45.96;100305.19;4964688;28;20357;-73
2023/05/12 05:30:52;;;;;;;;;;;;;;;14.41;45.60;100302.47;4964123;28;20020;-74
2023/05/12 05:33:18;;;;;;;;;;;;;;;14.43;45.79;100303.00;4955727;28;19926;-75
2023/05/12 05:35:45;;;;;;;;;;;;;;;14.48;45.55;100299.38;4960523;28;20506;-75
2023/05/12 05:38:12;;;;;;;;;;;;;;;14.55;45.69;100305.41;4955325;28;20020;-75
2023/05/12 05:40:38;;;;;;;;;;;;;;;14.61;45.62;100306.16;4965746;28;19925;-75
2023/05/12 05:43:05;;;;;;;;;;;;;;;14.65;45.44;100298.13;4964171;28;20310;-75
2023/05/12 05:45:31;;;;;;;;;;;;;;;14.66;45.59;100297.03;4959160;28;20373;-75
2023/05/12 05:47:57;;;;;;;;;;;;;;;14.71;45.43;100300.56;4960283;28;19926;-75
2023/05/12 05:50:24;;;;;;;;;;;;;;;14.77;45.28;100295.03;4974931;28;19968;-75
2023/05/12 05:52:50;;;;;;;;;;;;;;;14.84;45.27;100296.34;4959401;28;19937;-75
2023/05/12 05:55:16;;;;;;;;;;;;;;;14.89;44.89;100304.53;4955676;28;19930;-75
2023/05/12 05:57:42;;;;;;;;;;;;;;;14.98;44.96;100304.72;4954643;28;19926;-75
2023/05/12 06:00:11;;;;;;;;;;;;;;;15.05;44.74;100296.09;4952080;28;20428;-75
2023/05/12 06:02:42;;;;;;;;;;;;;;;15.14;44.80;100299.88;4972113;28;20639;-75
2023/05/12 06:05:11;;;;;;;;;;;;;;;15.24;44.59;100298.09;4948084;28;19961;-75
2023/05/12 06:07:37;;;;;;;;;;;;;;;15.34;44.26;100295.22;4970549;28;20420;-75
2023/05/12 06:10:03;;;;;;;;;;;;;;;15.49;43.67;100290.63;4972454;28;19933;-75
2023/05/12 06:12:30;;;;;;;;;;;;;;;15.69;43.68;100282.06;4979757;28;20036;-75
2023/05/12 06:14:56;;;;;;;;;;;;;;;15.83;43.08;100271.09;4970181;28;20376;-75
2023/05/12 06:17:23;;;;;;;;;;;;;;;16.19;42.45;100280.78;4967966;28;19930;-75
2023/05/12 06:19:49;;;;;;;;;;;;;;;16.32;41.81;100286.66;4970362;28;20028;-75
2023/05/12 06:22:15;;;;;;;;;;;;;;;16.42;41.49;100289.25;4967592;28;19925;-75
2023/05/12 06:24:41;;;;;;;;;;;;;;;16.54;41.64;100289.56;4943422;28;19926;-75
2023/05/12 06:27:09;;;;;;;;;;;;;;;16.77;41.08;100297.19;4963605;28;20309;-75
2023/05/12 06:29:35;;;;;;;;;;;;;;;16.95;41.25;100289.94;4950213;28;20378;-75
2023/05/12 06:32:01;;;;;;;;;;;;;;;17.16;40.17;100290.38;4963329;28;19926;-76
2023/05/12 06:34:28;;;;;;;;;;;;;;;17.32;39.55;100290.88;4963425;28;19980;-75
2023/05/12 06:36:54;;;;;;;;;;;;;;;17.35;39.46;100284.75;4963256;28;20000;-75
2023/05/12 06:39:22;;;;;;;;;;;;;;;17.48;39.04;100287.78;4964969;28;20029;-74
2023/05/12 06:41:47;;;;;;;;;;;;;;;17.50;38.39;100282.78;4951447;28;20032;-75
2023/05/12 06:44:21;;;;;;;;;;;;;;;17.51;38.54;100278.91;4980200;28;19929;-75
2023/05/12 06:46:52;;;;;;;;;;;;;;;17.60;38.31;100282.53;4964443;28;20041;-74
2023/05/12 06:49:19;;;;;;;;;;;;;;;17.72;37.49;100282.03;4967319;28;19929;-75
2023/05/12 06:51:46;;;;;;;;;;;;;;;17.72;37.10;100263.47;4961946;28;19925;-75
2023/05/12 06:54:12;;;;;;;;;;;;;;;18.07;36.64;100278.75;4962365;28;20352;-74
2023/05/12 06:56:38;;;;;;;;;;;;;;;18.29;36.49;100283.47;4965629;28;20188;-75
2023/05/12 06:59:04;;;;;;;;;;;;;;;18.48;36.22;100276.91;4965861;28;19926;-75
2023/05/12 07:01:30;;;;;;;;;;;;;;;18.65;35.48;100274.22;4968843;28;19933;-75
2023/05/12 07:03:57;;;;;;;;;;;;;;;18.90;35.21;100277.44;4965399;28;19926;-75
2023/05/12 07:06:26;;;;;;;;;;;;;;;18.89;34.08;100274.97;4968494;28;19989;-75
2023/05/12 07:08:54;;;;;;;;;;;;;;;18.76;34.89;100276.72;4966228;28;19949;-75
2023/05/12 07:11:20;;;;;;;;;;;;;;;18.83;34.61;100269.59;4966467;28;20444;-75
2023/05/12 07:13:47;;;;;;;;;;;;;;;19.07;33.88;100276.72;4968523;28;20008;-75
2023/05/12 07:16:13;;;;;;;;;;;;;;;19.34;33.28;100282.34;4965752;28;20363;-75
2023/05/12 07:18:39;;;;;;;;;;;;;;;19.53;32.71;100279.28;4964034;28;20036;-75
2023/05/12 07:21:05;;;;;;;;;;;;;;;19.69;32.23;100276.84;4966108;28;19933;-75
2023/05/12 07:23:31;;;;;;;;;;;;;;;19.91;31.56;100275.06;4970477;28;20283;-75
2023/05/12 07:25:59;;;;;;;;;;;;;;;19.90;29.99;100265.91;4967660;28;20029;-75
2023/05/12 07:28:24;;;;;;;;;;;;;;;19.87;29.39;100255.47;4968212;28;20325;-75
2023/05/12 07:30:50;;;;;;;;;;;;;;;19.91;29.72;100262.00;4967344;28;19930;-75
2023/05/12 07:33:16;;;;;;;;;;;;;;;20.04;29.39;100260.22;4968840;28;20406;-74
2023/05/12 07:35:43;;;;;;;;;;;;;;;20.08;29.35;100265.94;4967100;28;20012;-74
2023/05/12 07:38:09;;;;;;;;;;;;;;;20.33;29.06;100266.22;4968142;28;20502;-74
2023/05/12 07:40:35;;;;;;;;;;;;;;;20.52;28.90;100252.78;4968275;28;20300;-75
2023/05/12 07:43:02;;;;;;;;;;;;;;;20.53;28.60;100262.75;4967407;28;19932;-74
2023/05/12 07:45:28;;;;;;;;;;;;;;;20.60;28.39;100259.47;4969618;28;19980;-75
2023/05/12 07:47:54;;;;;;;;;;;;;;;20.67;28.58;100258.94;4968280;28;19926;-75
2023/05/12 07:50:20;;;;;;;;;;;;;;;20.85;28.11;100250.56;4955003;28;20348;-75
2023/05/12 07:52:47;;;;;;;;;;;;;;;21.14;27.06;100255.31;4970876;28;20387;-75
2023/05/12 07:55:14;;;;;;;;;;;;;;;21.43;25.90;100250.09;4967353;28;19932;-75
2023/05/12 07:57:40;;;;;;;;;;;;;;;21.50;25.08;100255.91;4969710;28;19926;-75
2023/05/12 08:00:08;;;;;;;;;;;;;;;21.39;24.38;100253.56;4967240;28;19932;-74
2023/05/12 08:02:39;;;;;;;;;;;;;;;21.45;23.67;100259.69;4963422;28;19985;-75
2023/05/12 08:05:05;;;;;;;;;;;;;;;21.75;22.95;100253.31;4965030;28;19926;-75
2023/05/12 08:07:31;;;;;;;;;;;;;;;22.09;22.91;100254.16;4966427;28;20448;-75
2023/05/12 08:09:57;;;;;;;;;;;;;;;22.28;21.89;100255.59;4968323;28;19930;-74
2023/05/12 08:12:23;;;;;;;;;;;;;;;22.32;21.93;100251.78;4965543;28;19961;-74
2023/05/12 08:14:49;;;;;;;;;;;;;;;22.22;22.22;100255.84;4968293;28;19932;-74
2023/05/12 08:17:16;;;;;;;;;;;;;;;22.22;22.75;100260.56;4971033;28;19933;-75
2023/05/12 08:19:42;;;;;;;;;;;;;;;22.55;22.42;100261.75;4968543;28;19932;-75
2023/05/12 08:22:07;;;;;;;;;;;;;;;22.85;22.07;100250.41;4967468;28;20384;-74
2023/05/12 08:24:33;;;;;;;;;;;;;;;22.83;22.28;100249.94;4964672;28;20247;-74
2023/05/12 08:26:59;;;;;;;;;;;;;;;22.90;21.86;100253.78;4966744;28;19926;-75
2023/05/12 08:29:25;;;;;;;;;;;;;;;23.21;21.81;100249.59;4950286;28;19932;-74
2023/05/12 08:31:51;;;;;;;;;;;;;;;23.37;21.84;100246.13;4967382;28;19988;-75
2023/05/12 08:34:18;;;;;;;;;;;;;;;23.22;21.77;100242.03;4964804;28;20369;-74
2023/05/12 08:36:44;;;;;;;;;;;;;;;23.42;21.79;100245.88;4969229;28;20297;-75
2023/05/12 08:39:10;;;;;;;;;;;;;;;23.59;21.51;100252.34;4982917;28;19926;-75
2023/05/12 08:41:41;;;;;;;;;;;;;;;23.92;21.45;100248.50;4967560;28;19930;-75
2023/05/12 08:44:07;;;;;;;;;;;;;;;24.63;20.98;100246.06;4955045;28;20440;-74
2023/05/12 08:46:33;;;;;;;;;;;;;;;25.14;20.16;100246.50;4981168;28;19945;-75
2023/05/12 08:49:01;;;;;;;;;;;;;;;25.93;19.91;100236.22;4968058;28;20355;-74
2023/05/12 08:51:30;;;;;;;;;;;;;;;26.54;18.85;100233.00;4965444;28;19926;-74
2023/05/12 08:53:56;;;;;;;;;;;;;;;26.70;18.66;100222.47;4965099;28;19973;-74
2023/05/12 08:56:23;;;;;;;;;;;;;;;26.78;18.39;100220.56;4967252;28;20155;-74
2023/05/12 08:58:50;;;;;;;;;;;;;;;26.60;18.46;100225.88;4967998;28;19925;-75
2023/05/12 09:01:16;;;;;;;;;;;;;;;26.27;18.53;100230.09;4967543;28;20533;-75
2023/05/12 09:03:43;;;;;;;;;;;;;;;26.46;18.34;100230.03;4970129;28;19933;-74
2023/05/12 09:06:12;;;;;;;;;;;;;;;25.53;18.82;100232.63;4966814;28;20180;-75
2023/05/12 09:08:39;;;;;;;;;;;;;;;24.71;19.36;100230.28;4966713;28;20378;-75
2023/05/12 09:11:08;;;;;;;;;;;;;;;24.52;19.47;100224.59;4967478;28;19925;-75
2023/05/12 09:13:39;;;;;;;;;;;;;;;25.60;18.66;100221.59;4969082;28;20033;-75
2023/05/12 09:16:06;;;;;;;;;;;;;;;27.29;17.19;100221.34;4964845;28;19972;-75
2023/05/12 09:18:48;;;;;;;;;;;;;;;28.04;16.16;100195.41;4963810;28;19933;-75
2023/05/12 09:21:14;;;;;;;;;;;;;;;26.52;16.92;100204.50;4966454;28;19933;-75
2023/05/12 09:23:50;;;;;;;;;;;;;;;24.77;18.64;100205.69;4969649;28;19930;-74
2023/05/12 09:26:16;;;;;;;;;;;;;;;23.71;19.35;100224.41;4966228;28;19930;-74
2023/05/12 09:28:42;;;;;;;;;;;;;;;23.17;20.15;100214.38;4960726;28;19934;-74
2023/05/12 09:31:15;;;;;;;;;;;;;;;23.49;19.98;100214.56;4970566;28;19973;-75
2023/05/12 09:33:41;;;;;;;;;;;;;;;24.56;19.16;100200.34;4967429;28;19936;-75
2023/05/12 09:36:07;;;;;;;;;;;;;;;25.92;17.83;100209.41;4964635;28;20387;-74
2023/05/12 09:38:33;;;;;;;;;;;;;;;25.93;17.45;100213.03;4967793;28;19925;-74
2023/05/12 09:41:00;;;;;;;;;;;;;;;25.29;17.79;100209.28;4967183;28;19930;-74
2023/05/12 09:43:26;;;;;;;;;;;;;;;25.96;17.68;100209.47;4979593;28;19930;-75
2023/05/12 09:45:54;;;;;;;;;;;;;;;27.46;16.53;100201.13;4968098;28;20364;-75
2023/05/12 09:48:21;;;;;;;;;;;;;;;29.00;15.64;100198.69;4965045;28;19925;-75
2023/05/12 09:50:48;;;;;;;;;;;;;;;29.61;14.80;100203.06;4966907;28;20114;-75
2023/05/12 09:53:16;;;;;;;;;;;;;;;30.20;14.45;100200.00;4961436;28;19934;-75
2023/05/12 09:55:43;;;;;;;;;;;;;;;30.51;14.21;100199.66;4967253;28;19981;-74
2023/05/12 09:58:10;;;;;;;;;;;;;;;29.50;14.71;100192.53;4967527;28;19926;-75
2023/05/12 10:00:40;;;;;;;;;;;;;;;28.29;15.57;100198.50;4968947;28;20310;-74
2023/05/12 10:03:09;;;;;;;;;;;;;;;27.35;16.26;100196.59;4967727;28;20383;-75
2023/05/12 10:05:37;;;;;;;;;;;;;;;26.71;16.80;100184.00;4962388;28;19926;-75
2023/05/12 10:08:04;;;;;;;;;;;;;;;26.84;16.69;100177.00;4963048;28;19989;-75
2023/05/12 10:10:31;;;;;;;;;;;;;;;26.81;17.07;100188.16;4968162;28;20420;-75
2023/05/12 10:12:58;;;;;;;;;;;;;;;26.17;17.26;100187.50;4965009;28;19994;-75
2023/05/12 10:15:26;;;;;;;;;;;;;;;25.45;17.86;100189.63;4933941;28;19933;-75
2023/05/12 10:17:54;;;;;;;;;;;;;;;25.56;17.83;100189.09;4966311;28;20040;-76
2023/05/12 10:20:20;;;;;;;;;;;;;;;27.41;16.49;100195.03;4962194;28;19961;-75
2023/05/12 10:22:47;;;;;;;;;;;;;;;29.39;15.15;100186.03;4964416;28;19933;-76
2023/05/12 10:25:15;;;;;;;;;;;;;;;31.21;13.86;100181.47;4950841;28;19957;-75
2023/05/12 10:27:43;;;;;;;;;;;;;;;31.78;13.15;100180.44;4964578;28;19926;-75
2023/05/12 10:30:10;;;;;;;;;;;;;;;30.83;14.10;100184.75;4964018;28;20396;-75
2023/05/12 10:32:39;;;;;;;;;;;;;;;31.02;13.63;100189.16;4967785;28;19933;-76
2023/05/12 10:35:09;;;;;;;;;;;;;;;30.25;14.24;100179.09;4966076;28;19930;-75
2023/05/12 10:37:36;;;;;;;;;;;;;;;30.43;14.38;100182.72;4951821;28;19976;-75
2023/05/12 10:40:03;;;;;;;;;;;;;;;29.34;14.65;100170.34;4976063;28;19925;-75
2023/05/12 10:42:36;;;;;;;;;;;;;;;28.03;15.77;100179.75;4966140;28;20017;-74
2023/05/12 10:45:13;;;;;;;;;;;;;;;26.93;16.40;100179.56;4950225;28;19940;-74
2023/05/12 10:47:41;;;;;;;;;;;;;;;26.16;17.40;100177.44;4948289;28;19973;-74
2023/05/12 10:50:07;;;;;;;;;;;;;;;27.02;17.24;100179.28;4969088;28;19926;-74
2023/05/12 10:52:34;;;;;;;;;;;;;;;28.30;16.08;100182.47;4951561;28;20392;-75
2023/05/12 10:55:01;;;;;;;;;;;;;;;28.48;15.41;100173.38;4964048;28;19930;-74
2023/05/12 10:57:31;;;;;;;;;;;;;;;28.82;15.13;100179.69;4966247;28;20373;-74
2023/05/12 10:59:58;;;;;;;;;;;;;;;28.08;15.45;100173.75;4969110;28;19925;-75
2023/05/12 11:02:32;;;;;;;;;;;;;;;26.67;16.24;100178.31;4966051;28;19930;-74
2023/05/12 11:05:02;;;;;;;;;;;;;;;25.24;17.95;100173.19;4963027;28;19933;-75
2023/05/12 11:07:31;;;;;;;;;;;;;;;24.27;18.76;100180.06;4966793;28;19930;-74
2023/05/12 11:09:57;;;;;;;;;;;;;;;23.57;19.43;100182.13;4969281;28;19980;-74
2023/05/12 11:12:25;;;;;;;;;;;;;;;23.01;20.06;100181.63;4964540;28;20361;-75
2023/05/12 11:14:51;;;;;;;;;;;;;;;22.61;20.62;100182.34;4945420;28;19926;-74
2023/05/12 11:17:17;;;;;;;;;;;;;;;22.45;20.83;100185.78;4964645;28;19930;-74
2023/05/12 11:19:45;;;;;;;;;;;;;;;22.43;21.14;100181.72;4966201;28;19930;-74
2023/05/12 11:22:12;;;;;;;;;;;;;;;22.48;20.81;100187.94;4966895;28;19995;-74
2023/05/12 11:24:39;;;;;;;;;;;;;;;22.69;20.83;100181.44;4967149;28;20020;-74
2023/05/12 11:27:06;;;;;;;;;;;;;;;22.99;21.02;100185.94;4967121;28;19926;-74
2023/05/12 11:29:31;;;;;;;;;;;;;;;24.27;19.85;100183.66;4965072;28;19984;-74
2023/05/12 11:31:59;;;;;;;;;;;;;;;25.75;19.15;100179.84;4950925;28;19926;-75
2023/05/12 11:34:26;;;;;;;;;;;;;;;26.02;18.62;100168.78;4966774;28;19926;-75
2023/05/12 11:36:52;;;;;;;;;;;;;;;25.70;18.63;100163.38;4967452;28;19961;-75
2023/05/12 11:39:20;;;;;;;;;;;;;;;26.80;17.89;100164.91;4980109;28;19933;-75
2023/05/12 11:41:46;;;;;;;;;;;;;;;27.80;16.46;100175.09;4965376;28;19933;-75
2023/05/12 11:44:13;;;;;;;;;;;;;;;28.78;16.06;100170.38;4961196;28;19970;-75
2023/05/12 11:46:40;;;;;;;;;;;;;;;29.75;15.20;100165.69;4962970;28;19926;-76
2023/05/12 11:49:09;;;;;;;;;;;;;;;30.18;14.75;100162.19;4964865;28;19938;-75
2023/05/12 11:51:40;;;;;;;;;;;;;;;30.25;14.77;100160.16;4967554;28;19926;-75
2023/05/12 11:54:06;;;;;;;;;;;;;;;30.79;13.86;100162.16;4968236;28;19926;-75
2023/05/12 11:56:33;;;;;;;;;;;;;;;31.81;13.77;100165.47;4965511;28;19926;-75
2023/05/12 11:58:59;;;;;;;;;;;;;;;32.41;12.91;100152.56;4964667;28;19926;-75
2023/05/12 12:01:25;;;;;;;;;;;;;;;32.43;12.85;100153.78;4930714;28;19933;-75
2023/05/12 12:03:51;;;;;;;;;;;;;;;32.64;12.22;100161.28;4964574;28;19984;-75
2023/05/12 12:06:18;;;;;;;;;;;;;;;33.10;11.94;100149.91;4962661;28;19933;-74
2023/05/12 12:08:50;;;;;;;;;;;;;;;32.65;12.02;100156.41;4967645;28;19926;-75
2023/05/12 12:11:17;;;;;;;;;;;;;;;30.47;13.41;100134.78;4966610;28;20096;-75
2023/05/12 12:13:49;;;;;;;;;;;;;;;29.83;13.76;100147.59;4967441;28;20472;-76
2023/05/12 12:16:15;;;;;;;;;;;;;;;29.92;14.40;100144.38;4962493;28;20073;-75
2023/05/12 12:18:40;;;;;;;;;;;;;;;31.21;13.43;100148.38;4970040;28;20547;-74
2023/05/12 12:21:06;;;;;;;;;;;;;;;32.15;12.48;100144.28;4967021;28;19937;-73
2023/05/12 12:23:32;;;;;;;;;;;;;;;33.21;11.99;100141.28;4975349;28;20049;-75
2023/05/12 12:25:58;;;;;;;;;;;;;;;33.93;11.54;100139.53;4972143;28;20008;-75
2023/05/12 12:28:24;;;;;;;;;;;;;;;33.86;11.58;100128.28;4968663;28;19925;-75
2023/05/12 12:30:52;;;;;;;;;;;;;;;32.91;11.85;100132.31;4965234;28;19980;-75
2023/05/12 12:33:17;;;;;;;;;;;;;;;32.89;11.96;100128.28;4971742;28;19949;-76
2023/05/12 12:35:44;;;;;;;;;;;;;;;32.99;11.84;100129.41;4968457;28;20425;-75